createdAt,value
2022-08-26T00:00:37.756Z,100125.91
2022-08-26T00:03:40.652Z,100124.38
2022-08-26T00:06:46.261Z,100130.50
2022-08-26T00:09:50.126Z,100123.66
2022-08-26T00:12:56.598Z,100123.06
2022-08-26T00:15:59.206Z,100117.44
2022-08-26T00:19:02.002Z,100124.78
2022-08-26T00:22:04.658Z,100112.78
2022-08-26T00:25:07.546Z,100116.38
2022-08-26T00:28:12.055Z,100119.28
2022-08-26T00:31:14.319Z,100118.78
2022-08-26T00:34:19.234Z,100117.09
2022-08-26T00:37:21.967Z,100119.03
2022-08-26T00:40:36.096Z,100118.31
2022-08-26T00:43:47.485Z,100113.28
2022-08-26T00:46:58.307Z,100118.09
2022-08-26T00:50:02.740Z,100118.22
2022-08-26T00:53:24.028Z,100112.94
2022-08-26T00:56:33.389Z,100113.88
2022-08-26T00:59:36.307Z,100111.37
2022-08-26T01:02:46.817Z,100111.37
2022-08-26T01:05:51.094Z,100112.59
2022-08-26T01:08:54.001Z,100111.87
2022-08-26T01:11:58.070Z,100111.16
2022-08-26T01:15:02.125Z,100110.44
2022-08-26T01:18:05.646Z,100105.16
2022-08-26T01:21:27.792Z,100110.56
2022-08-26T01:24:32.176Z,100108.06
2022-08-26T01:27:36.813Z,100108.66
2022-08-26T01:30:40.443Z,100100.41
2022-08-26T01:33:52.615Z,100102.28
2022-08-26T01:37:15.517Z,100104.50
2022-08-26T01:40:23.632Z,100105.56
2022-08-26T01:43:27.508Z,100103.88
2022-08-26T01:46:30.459Z,100109.41
2022-08-26T01:49:34.400Z,100105.09
2022-08-26T01:52:39.537Z,100102.56
2022-08-26T01:55:44.947Z,100094.03
2022-08-26T01:58:58.151Z,100101.63
2022-08-26T02:02:01.581Z,100105.56
2022-08-26T02:05:06.155Z,100111.78
2022-08-26T02:08:08.754Z,100107.59
2022-08-26T02:11:12.114Z,100103.00
2022-08-26T02:14:43.523Z,100108.66
2022-08-26T02:17:47.261Z,100112.38
2022-08-26T02:20:52.271Z,100108.06
2022-08-26T02:23:56.076Z,100102.16
2022-08-26T02:26:58.829Z,100108.53
2022-08-26T02:30:07.616Z,100109.00
2022-08-26T02:33:10.659Z,100109.84
2022-08-26T02:36:18.204Z,100105.03
2022-08-26T02:39:22.330Z,100104.53
2022-08-26T02:42:25.542Z,100105.63
2022-08-26T02:45:28.965Z,100104.06
2022-08-26T02:48:31.976Z,100108.75
2022-08-26T02:51:34.256Z,100106.09
2022-08-26T02:54:37.296Z,100108.59
2022-08-26T02:57:39.658Z,100107.56
2022-08-26T03:00:52.655Z,100110.94
2022-08-26T03:03:56.131Z,100109.00
2022-08-26T03:06:58.844Z,100110.78
2022-08-26T03:10:01.160Z,100116.62
2022-08-26T03:13:09.714Z,100110.88
2022-08-26T03:16:13.409Z,100111.09
2022-08-26T03:19:17.534Z,100107.59
2022-08-26T03:22:20.515Z,100102.22
2022-08-26T03:25:23.953Z,100101.59
2022-08-26T03:28:27.186Z,100102.66
2022-08-26T03:31:29.965Z,100104.38
2022-08-26T03:34:32.392Z,100099.66
2022-08-26T03:37:34.963Z,100099.06
2022-08-26T03:40:37.609Z,100089.41
2022-08-26T03:43:40.660Z,100086.06
2022-08-26T03:46:43.070Z,100093.47
2022-08-26T03:49:46.702Z,100096.00
2022-08-26T03:52:49.840Z,100096.75
2022-08-26T03:55:52.539Z,100093.78
2022-08-26T03:58:56.027Z,100093.12
2022-08-26T04:01:58.638Z,100088.19
2022-08-26T04:05:01.346Z,100093.69
2022-08-26T04:08:05.927Z,100097.31
2022-08-26T04:11:08.744Z,100091.19
2022-08-26T04:14:17.700Z,100094.53
2022-08-26T04:17:25.763Z,100097.69
2022-08-26T04:20:28.506Z,100095.53
2022-08-26T04:23:31.086Z,100098.72
2022-08-26T04:26:37.124Z,100100.28
2022-08-26T04:29:43.647Z,100092.97
2022-08-26T04:32:45.995Z,100091.66
2022-08-26T04:35:48.585Z,100093.81
2022-08-26T04:38:51.502Z,100087.13
2022-08-26T04:41:57.763Z,100087.75
2022-08-26T04:45:00.350Z,100088.81
2022-08-26T04:48:03.244Z,100086.44
2022-08-26T04:51:06.736Z,100092.81
2022-08-26T04:54:09.498Z,100095.56
2022-08-26T04:57:11.963Z,100093.63
2022-08-26T05:00:15.251Z,100101.63
2022-08-26T05:03:18.055Z,100097.66
2022-08-26T05:06:20.851Z,100095.56
2022-08-26T05:09:24.751Z,100089.66
2022-08-26T05:12:30.540Z,100100.22
2022-08-26T05:15:33.916Z,100085.88
2022-08-26T05:18:37.528Z,100099.69
2022-08-26T05:21:39.878Z,100097.84
2022-08-26T05:24:43.283Z,100094.22
2022-08-26T05:27:45.588Z,100091.16
2022-08-26T05:30:49.283Z,100104.06
2022-08-26T05:33:51.787Z,100094.41
2022-08-26T05:36:54.697Z,100108.19
2022-08-26T05:39:57.040Z,100104.22
2022-08-26T05:43:01.470Z,100102.53
2022-08-26T05:46:06.351Z,100105.53
2022-08-26T05:49:12.258Z,100111.06
2022-08-26T05:52:15.501Z,100108.31
2022-08-26T05:55:18.523Z,100112.13
2022-08-26T05:58:21.709Z,100111.56
2022-08-26T06:01:26.057Z,100119.41
2022-08-26T06:04:29.459Z,100118.28
2022-08-26T06:07:50.666Z,100115.72
2022-08-26T06:10:59.421Z,100119.41
2022-08-26T06:14:04.295Z,100122.13
2022-08-26T06:17:07.111Z,100122.91
2022-08-26T06:20:11.976Z,100123.53
2022-08-26T06:23:33.981Z,100131.25
2022-08-26T06:26:37.308Z,100132.84
2022-08-26T06:29:39.954Z,100128.16
2022-08-26T06:32:42.239Z,100133.13
2022-08-26T06:35:47.008Z,100141.78
2022-08-26T06:38:51.657Z,100133.66
2022-08-26T06:41:56.097Z,100132.88
2022-08-26T06:45:00.055Z,100130.19
2022-08-26T06:48:02.702Z,100128.25
2022-08-26T06:51:09.167Z,100131.78
2022-08-26T06:54:11.863Z,100125.03
2022-08-26T06:57:14.382Z,100126.59
2022-08-26T07:00:20.736Z,100124.94
2022-08-26T07:03:23.113Z,100129.22
2022-08-26T07:06:27.362Z,100131.47
2022-08-26T07:09:33.228Z,100132.97
2022-08-26T07:12:36.220Z,100121.50
2022-08-26T07:15:41.939Z,100117.63
2022-08-26T07:18:45.217Z,100114.72
2022-08-26T07:21:48.326Z,100118.09
2022-08-26T07:24:52.209Z,100120.88
2022-08-26T07:27:54.631Z,100122.59
2022-08-26T07:30:57.339Z,100114.22
2022-08-26T07:34:00.485Z,100115.09
2022-08-26T07:37:03.282Z,100111.97
2022-08-26T07:40:05.944Z,100106.22
2022-08-26T07:43:09.882Z,100107.25
2022-08-26T07:46:18.461Z,100103.97
2022-08-26T07:49:24.340Z,100110.38
2022-08-26T07:52:28.126Z,100102.34
2022-08-26T07:55:34.496Z,100095.34
2022-08-26T07:58:40.454Z,100100.28
2022-08-26T08:01:44.912Z,100086.06
2022-08-26T08:04:48.194Z,100090.12
2022-08-26T08:07:53.529Z,100090.59
2022-08-26T08:11:03.443Z,100088.88
2022-08-26T08:14:08.807Z,100088.75
2022-08-26T08:17:14.873Z,100078.56
2022-08-26T08:20:18.498Z,100072.56
2022-08-26T08:23:21.093Z,100078.72
2022-08-26T08:26:24.562Z,100084.16
2022-08-26T08:29:29.617Z,100077.13
2022-08-26T08:32:32.652Z,100075.84
2022-08-26T08:35:35.249Z,100069.78
2022-08-26T08:38:39.429Z,100068.03
2022-08-26T08:41:42.029Z,100071.94
2022-08-26T08:44:51.903Z,100056.50
2022-08-26T08:47:56.757Z,100063.13
2022-08-26T08:51:18.001Z,100052.19
2022-08-26T08:54:21.867Z,100058.97
2022-08-26T08:57:39.490Z,100060.31
2022-08-26T09:00:46.499Z,100057.78
2022-08-26T09:03:49.427Z,100058.81
2022-08-26T09:06:53.950Z,100057.16
2022-08-26T09:09:59.937Z,100050.50
2022-08-26T09:13:08.302Z,100052.41
2022-08-26T09:16:10.972Z,100046.56
2022-08-26T09:19:27.431Z,100046.09
2022-08-26T09:22:34.768Z,100044.28
2022-08-26T09:25:48.644Z,100045.94
2022-08-26T09:28:55.912Z,100034.56
2022-08-26T09:32:13.625Z,100027.94
2022-08-26T09:35:27.282Z,100027.50
2022-08-26T09:38:34.100Z,100028.38
2022-08-26T09:41:37.042Z,100023.25
2022-08-26T09:44:54.926Z,100025.03
2022-08-26T09:48:01.354Z,100025.62
2022-08-26T09:51:05.646Z,100023.94
2022-08-26T09:54:08.524Z,100024.59
2022-08-26T09:57:14.015Z,100016.16
2022-08-26T10:00:29.003Z,100011.06
2022-08-26T10:03:33.240Z,100012.94
2022-08-26T10:07:00.374Z,100008.28
2022-08-26T10:10:05.674Z,100015.34
2022-08-26T10:13:11.733Z,100009.31
2022-08-26T10:16:19.583Z,100005.19
2022-08-26T10:19:55.852Z,100005.06
2022-08-26T10:23:02.802Z,100005.66
2022-08-26T10:26:11.499Z,100002.94
2022-08-26T10:29:19.817Z,99998.19
2022-08-26T10:32:35.113Z,99991.97
2022-08-26T10:35:49.184Z,99998.19
2022-08-26T10:38:51.639Z,99995.91
2022-08-26T10:41:57.529Z,99987.63
2022-08-26T10:45:03.373Z,99981.50
2022-08-26T10:48:07.749Z,99968.38
2022-08-26T10:51:12.571Z,99968.94
2022-08-26T10:54:23.844Z,99971.00
2022-08-26T10:57:30.412Z,99970.59
2022-08-26T11:00:56.072Z,99964.16
2022-08-26T11:04:05.241Z,99964.41
2022-08-26T11:07:26.811Z,99959.25
2022-08-26T11:10:29.109Z,99953.81
2022-08-26T11:13:50.588Z,99961.84
2022-08-26T11:16:54.257Z,99956.50
2022-08-26T11:20:01.444Z,99956.09
2022-08-26T11:23:26.785Z,99948.91
2022-08-26T11:26:56.079Z,99950.59
2022-08-26T11:30:00.757Z,99945.59
2022-08-26T11:33:03.687Z,99945.78
2022-08-26T11:36:07.446Z,99933.03
2022-08-26T11:39:18.099Z,99935.06
2022-08-26T11:42:23.515Z,99924.56
2022-08-26T11:45:38.013Z,99924.97
2022-08-26T11:48:43.711Z,99930.94
2022-08-26T11:51:48.276Z,99922.59
2022-08-26T11:55:04.995Z,99914.91
2022-08-26T11:58:11.380Z,99913.78
2022-08-26T12:01:25.786Z,99917.31
2022-08-26T12:04:37.871Z,99906.22
2022-08-26T12:07:42.648Z,99905.84
2022-08-26T12:10:45.723Z,99900.03
2022-08-26T12:13:58.733Z,99900.06
2022-08-26T12:17:18.831Z,99891.19
2022-08-26T12:20:45.873Z,99887.47
2022-08-26T12:23:50.316Z,99885.34
2022-08-26T12:27:05.783Z,99882.19
2022-08-26T12:30:14.064Z,99877.00
2022-08-26T12:33:22.895Z,99865.53
2022-08-26T12:36:31.657Z,99861.75
2022-08-26T12:39:38.228Z,99867.84
2022-08-26T12:42:42.048Z,99864.34
2022-08-26T12:45:55.994Z,99863.78
2022-08-26T12:49:01.317Z,99857.50
2022-08-26T12:52:04.886Z,99843.91
2022-08-26T12:55:29.025Z,99847.06
2022-08-26T12:58:32.634Z,99850.69
2022-08-26T13:01:37.948Z,99854.50
2022-08-26T13:04:41.895Z,99848.94
2022-08-26T13:07:44.502Z,99837.72
2022-08-26T13:10:47.764Z,99840.41
2022-08-26T13:13:52.070Z,99838.47
2022-08-26T13:16:55.814Z,99840.34
2022-08-26T13:20:03.495Z,99829.16
2022-08-26T13:23:06.375Z,99827.47
2022-08-26T13:26:09.028Z,99814.00
2022-08-26T13:29:12.189Z,99819.38
2022-08-26T13:32:14.928Z,99818.75
2022-08-26T13:35:17.276Z,99824.50
2022-08-26T13:38:32.915Z,99817.72
2022-08-26T13:41:36.690Z,99809.63
2022-08-26T13:44:39.319Z,99803.13
2022-08-26T13:47:41.628Z,99799.59
2022-08-26T13:50:44.788Z,99803.97
2022-08-26T13:53:47.096Z,99804.34
2022-08-26T13:56:49.749Z,99801.59
2022-08-26T13:59:53.949Z,99799.69
2022-08-26T14:02:56.540Z,99794.56
2022-08-26T14:05:59.711Z,99791.22
2022-08-26T14:09:02.025Z,99793.38
2022-08-26T14:12:04.722Z,99787.91
2022-08-26T14:15:07.746Z,99781.69
2022-08-26T14:18:12.311Z,99784.59
2022-08-26T14:21:14.636Z,99788.59
2022-08-26T14:24:17.198Z,99788.91
2022-08-26T14:27:19.529Z,99790.53
2022-08-26T14:30:22.533Z,99799.47
2022-08-26T14:33:26.278Z,99802.81
2022-08-26T14:36:28.965Z,99802.63
2022-08-26T14:39:31.496Z,99799.88
2022-08-26T14:42:34.170Z,99802.78
2022-08-26T14:48:47.816Z,99795.13
2022-08-26T14:51:50.173Z,99789.75
2022-08-26T14:54:54.944Z,99796.78
2022-08-26T14:57:57.783Z,99788.69
2022-08-26T15:01:04.231Z,99782.63
2022-08-26T15:04:06.959Z,99782.66
2022-08-26T15:07:09.663Z,99779.56
2022-08-26T15:10:16.189Z,99772.87
2022-08-26T15:13:19.108Z,99773.75
2022-08-26T15:16:22.701Z,99779.34
2022-08-26T15:19:26.135Z,99771.28
2022-08-26T15:22:29.903Z,99773.81
2022-08-26T15:25:32.544Z,99770.69
2022-08-26T15:28:35.070Z,99763.84
2022-08-26T15:31:38.490Z,99772.34
2022-08-26T15:34:40.838Z,99756.41
2022-08-26T15:37:43.475Z,99765.72
2022-08-26T15:40:45.898Z,99764.69
2022-08-26T15:43:48.544Z,99760.69
2022-08-26T15:46:54.258Z,99764.41
2022-08-26T15:49:59.220Z,99757.41
2022-08-26T15:53:01.617Z,99755.72
2022-08-26T15:56:04.304Z,99755.28
2022-08-26T15:59:07.995Z,99748.47
2022-08-26T16:02:10.814Z,99748.69
2022-08-26T16:05:13.557Z,99746.97
2022-08-26T16:08:15.994Z,99737.88
2022-08-26T16:11:21.523Z,99741.19
2022-08-26T16:14:24.089Z,99746.56
2022-08-26T16:17:26.598Z,99738.19
2022-08-26T16:20:29.219Z,99737.56
2022-08-26T16:23:31.755Z,99734.84
2022-08-26T16:26:35.025Z,99736.44
2022-08-26T16:29:39.231Z,99739.12
2022-08-26T16:32:41.490Z,99736.19
2022-08-26T16:35:45.319Z,99740.63
2022-08-26T16:38:54.693Z,99744.09
2022-08-26T16:41:57.240Z,99744.09
2022-08-26T16:44:59.743Z,99738.22
2022-08-26T16:48:02.373Z,99742.47
2022-08-26T16:51:04.736Z,99742.63
2022-08-26T16:54:08.676Z,99756.75
2022-08-26T16:57:12.159Z,99750.50
2022-08-26T17:00:27.595Z,99749.34
2022-08-26T17:03:29.907Z,99750.16
2022-08-26T17:06:32.649Z,99752.66
2022-08-26T17:09:35.192Z,99745.69
2022-08-26T17:12:37.827Z,99751.00
2022-08-26T17:15:40.202Z,99744.81
2022-08-26T17:18:43.071Z,99751.31
2022-08-26T17:21:45.855Z,99749.94
2022-08-26T17:24:49.109Z,99752.44
2022-08-26T17:27:51.502Z,99747.91
2022-08-26T17:30:55.556Z,99755.66
2022-08-26T17:33:58.082Z,99752.72
2022-08-26T17:37:00.718Z,99748.81
2022-08-26T17:40:03.838Z,99750.06
2022-08-26T17:43:12.091Z,99755.13
2022-08-26T17:46:14.686Z,99753.94
2022-08-26T17:49:17.300Z,99746.00
2022-08-26T17:52:20.315Z,99748.47
2022-08-26T17:55:22.932Z,99753.22
2022-08-26T17:58:25.639Z,99752.66
2022-08-26T18:01:28.508Z,99759.72
2022-08-26T18:04:31.397Z,99755.13
2022-08-26T18:07:41.383Z,99754.50
2022-08-26T18:10:47.087Z,99769.56
2022-08-26T18:13:49.452Z,99764.25
2022-08-26T18:16:52.140Z,99765.25
2022-08-26T18:19:54.649Z,99766.28
2022-08-26T18:22:57.541Z,99768.81
2022-08-26T18:25:59.825Z,99767.66
2022-08-26T18:29:02.522Z,99766.28
2022-08-26T18:32:04.912Z,99771.91
2022-08-26T18:35:08.216Z,99764.25
2022-08-26T18:38:11.975Z,99765.56
2022-08-26T18:41:14.881Z,99769.41
2022-08-26T18:44:18.415Z,99771.19
2022-08-26T18:47:21.211Z,99773.84
2022-08-26T18:50:23.957Z,99782.94
2022-08-26T18:53:27.688Z,99783.06
2022-08-26T18:56:31.548Z,99781.53
2022-08-26T18:59:34.238Z,99778.16
2022-08-26T19:02:36.936Z,99790.66
2022-08-26T19:05:40.817Z,99782.63
2022-08-26T19:08:44.805Z,99783.56
2022-08-26T19:11:49.602Z,99786.53
2022-08-26T19:14:52.284Z,99789.28
2022-08-26T19:17:56.358Z,99784.56
2022-08-26T19:20:58.682Z,99791.78
2022-08-26T19:24:02.664Z,99798.81
2022-08-26T19:27:05.388Z,99793.97
2022-08-26T19:30:08.342Z,99795.75
2022-08-26T19:33:11.581Z,99798.88
2022-08-26T19:36:17.425Z,99791.81
2022-08-26T19:39:20.244Z,99792.75
2022-08-26T19:42:22.821Z,99795.16
2022-08-26T19:45:25.606Z,99796.38
2022-08-26T19:48:29.654Z,99799.97
2022-08-26T19:51:33.002Z,99801.56
2022-08-26T19:54:36.179Z,99802.50
2022-08-26T19:57:40.018Z,99816.56
2022-08-26T20:00:42.821Z,99818.03
2022-08-26T20:03:45.630Z,99816.56
2022-08-26T20:06:48.002Z,99816.25
2022-08-26T20:09:56.396Z,99818.09
2022-08-26T20:12:58.895Z,99829.09
2022-08-26T20:16:01.632Z,99831.22
2022-08-26T20:19:22.443Z,99830.81
2022-08-26T20:22:25.460Z,99828.50
2022-08-26T20:25:27.800Z,99827.25
2022-08-26T20:28:30.490Z,99831.66
2022-08-26T20:31:33.271Z,99829.28
2022-08-26T20:34:36.328Z,99839.69
2022-08-26T20:37:38.995Z,99838.59
2022-08-26T20:40:43.605Z,99840.31
2022-08-26T20:43:47.045Z,99840.87
2022-08-26T20:46:50.011Z,99843.38
2022-08-26T20:49:52.684Z,99848.87
2022-08-26T20:52:55.362Z,99850.59
2022-08-26T20:56:01.852Z,99854.50
2022-08-26T20:59:06.702Z,99858.59
2022-08-26T21:02:09.268Z,99855.09
2022-08-26T21:05:11.881Z,99865.75
2022-08-26T21:08:14.538Z,99871.31
2022-08-26T21:11:18.206Z,99883.22
2022-08-26T21:14:22.849Z,99876.66
2022-08-26T21:17:29.374Z,99877.75
2022-08-26T21:20:32.585Z,99873.03
2022-08-26T21:23:35.727Z,99872.47
2022-08-26T21:26:38.032Z,99875.69
2022-08-26T21:29:41.143Z,99878.09
2022-08-26T21:32:43.437Z,99880.84
2022-08-26T21:35:53.222Z,99881.16
2022-08-26T21:38:58.328Z,99883.91
2022-08-26T21:42:00.893Z,99876.94
2022-08-26T21:45:03.525Z,99884.22
2022-08-26T21:48:07.848Z,99870.53
2022-08-26T21:51:11.209Z,99877.91
2022-08-26T21:54:14.242Z,99881.97
2022-08-26T21:57:16.713Z,99878.34
2022-08-26T22:00:19.854Z,99878.91
2022-08-26T22:03:27.420Z,99878.50
2022-08-26T22:06:30.481Z,99875.41
2022-08-26T22:09:33.239Z,99872.75
2022-08-26T22:12:36.118Z,99877.78
2022-08-26T22:15:40.684Z,99882.09
2022-08-26T22:18:44.952Z,99877.50
2022-08-26T22:21:51.869Z,99876.94
2022-08-26T22:24:54.204Z,99874.97
2022-08-26T22:27:56.844Z,99865.22
2022-08-26T22:30:59.685Z,99876.22
2022-08-26T22:34:02.369Z,99870.22
2022-08-26T22:37:04.961Z,99871.09
2022-08-26T22:40:08.051Z,99863.25
2022-08-26T22:43:10.785Z,99862.41
2022-08-26T22:46:17.432Z,99857.63
2022-08-26T22:49:19.823Z,99859.97
2022-08-26T22:52:22.381Z,99854.25
2022-08-26T22:55:24.707Z,99852.00
2022-08-26T22:58:30.932Z,99856.87
2022-08-26T23:01:35.619Z,99854.34
2022-08-26T23:04:40.008Z,99850.41
2022-08-26T23:07:42.316Z,99851.66
2022-08-26T23:10:46.311Z,99848.44
2022-08-26T23:13:48.652Z,99854.97
2022-08-26T23:16:51.712Z,99852.47
2022-08-26T23:19:55.193Z,99852.88
2022-08-26T23:22:58.616Z,99849.88
2022-08-26T23:26:05.552Z,99846.44
2022-08-26T23:29:09.734Z,99846.50
2022-08-26T23:32:12.099Z,99845.91
2022-08-26T23:35:15.064Z,99845.59
2022-08-26T23:38:19.036Z,99840.25
2022-08-26T23:41:22.592Z,99833.59
2022-08-26T23:44:26.520Z,99828.13
2022-08-26T23:47:29.222Z,99824.59
2022-08-26T23:50:50.530Z,99831.50
2022-08-26T23:53:53.134Z,99833.56
2022-08-26T23:56:55.441Z,99825.87
2022-08-26T23:59:58.086Z,99821.44
